sensor_id;sensor_type;location;lat;lon;timestamp;temperature;humidity
45619;DHT22;31343;47.520;19.144;2022-09-24T00:01:11;8.80;99.90
45619;DHT22;31343;47.520;19.144;2022-09-24T00:03:37;8.70;99.90
45619;DHT22;31343;47.520;19.144;2022-09-24T00:06:03;8.70;99.90
45619;DHT22;31343;47.520;19.144;2022-09-24T00:08:29;8.70;99.90
45619;DHT22;31343;47.520;19.144;2022-09-24T00:10:55;8.70;99.90
45619;DHT22;31343;47.520;19.144;2022-09-24T00:13:21;8.70;99.90
45619;DHT22;31343;47.520;19.144;2022-09-24T00:15:48;8.70;99.90
45619;DHT22;31343;47.520;19.144;2022-09-24T00:18:14;8.60;99.90
45619;DHT22;31343;47.520;19.144;2022-09-24T00:20:40;8.60;99.90
45619;DHT22;31343;47.520;19.144;2022-09-24T00:23:06;8.60;99.90
45619;DHT22;31343;47.520;19.144;2022-09-24T00:25:32;8.40;99.90
45619;DHT22;31343;47.520;19.144;2022-09-24T00:28:16;8.30;99.90
45619;DHT22;31343;47.520;19.144;2022-09-24T00:30:42;8.40;99.90
45619;DHT22;31343;47.520;19.144;2022-09-24T00:33:08;8.40;99.90
45619;DHT22;31343;47.520;19.144;2022-09-24T00:35:35;8.40;99.90
45619;DHT22;31343;47.520;19.144;2022-09-24T00:38:01;8.40;99.90
45619;DHT22;31343;47.520;19.144;2022-09-24T00:40:27;8.40;99.90
45619;DHT22;31343;47.520;19.144;2022-09-24T00:42:53;8.40;99.90
45619;DHT22;31343;47.520;19.144;2022-09-24T00:45:18;8.40;99.90
45619;DHT22;31343;47.520;19.144;2022-09-24T00:47:44;8.30;99.90
45619;DHT22;31343;47.520;19.144;2022-09-24T00:53:02;8.30;99.90
45619;DHT22;31343;47.520;19.144;2022-09-24T00:55:29;8.20;99.90
45619;DHT22;31343;47.520;19.144;2022-09-24T00:57:56;8.20;99.90
45619;DHT22;31343;47.520;19.144;2022-09-24T01:00:23;8.20;99.90
45619;DHT22;31343;47.520;19.144;2022-09-24T01:02:50;8.30;99.90
45619;DHT22;31343;47.520;19.144;2022-09-24T01:05:16;8.30;99.90
45619;DHT22;31343;47.520;19.144;2022-09-24T01:07:42;8.20;99.90
45619;DHT22;31343;47.520;19.144;2022-09-24T01:10:08;8.20;99.90
45619;DHT22;31343;47.520;19.144;2022-09-24T01:12:47;8.10;99.90
45619;DHT22;31343;47.520;19.144;2022-09-24T01:18:29;8.10;99.90
45619;DHT22;31343;47.520;19.144;2022-09-24T01:20:39;8.10;99.90
45619;DHT22;31343;47.520;19.144;2022-09-24T01:26:15;8.00;99.90
45619;DHT22;31343;47.520;19.144;2022-09-24T01:29:12;8.00;99.90
45619;DHT22;31343;47.520;19.144;2022-09-24T01:31:43;8.00;99.90
45619;DHT22;31343;47.520;19.144;2022-09-24T01:34:11;8.00;99.90
45619;DHT22;31343;47.520;19.144;2022-09-24T01:36:39;7.90;99.90
45619;DHT22;31343;47.520;19.144;2022-09-24T01:39:06;8.00;99.90
45619;DHT22;31343;47.520;19.144;2022-09-24T01:41:33;7.90;99.90
45619;DHT22;31343;47.520;19.144;2022-09-24T01:43:59;7.90;99.90
45619;DHT22;31343;47.520;19.144;2022-09-24T01:46:27;7.90;99.90
45619;DHT22;31343;47.520;19.144;2022-09-24T01:48:53;7.90;99.90
45619;DHT22;31343;47.520;19.144;2022-09-24T01:51:21;7.90;99.90
45619;DHT22;31343;47.520;19.144;2022-09-24T01:53:55;7.80;99.90
45619;DHT22;31343;47.520;19.144;2022-09-24T01:56:24;7.60;99.90
45619;DHT22;31343;47.520;19.144;2022-09-24T01:58:55;7.60;99.90
45619;DHT22;31343;47.520;19.144;2022-09-24T02:01:30;7.70;99.90
45619;DHT22;31343;47.520;19.144;2022-09-24T02:03:57;7.60;99.90
45619;DHT22;31343;47.520;19.144;2022-09-24T02:06:32;7.50;99.90
45619;DHT22;31343;47.520;19.144;2022-09-24T02:08:59;7.60;99.90
45619;DHT22;31343;47.520;19.144;2022-09-24T02:11:25;7.50;99.90
45619;DHT22;31343;47.520;19.144;2022-09-24T02:14:07;7.60;99.90
45619;DHT22;31343;47.520;19.144;2022-09-24T02:16:40;7.50;99.90
45619;DHT22;31343;47.520;19.144;2022-09-24T02:19:10;7.50;99.90
45619;DHT22;31343;47.520;19.144;2022-09-24T02:21:35;7.50;99.90
45619;DHT22;31343;47.520;19.144;2022-09-24T02:24:13;7.40;99.90
45619;DHT22;31343;47.520;19.144;2022-09-24T02:26:39;7.40;99.90
45619;DHT22;31343;47.520;19.144;2022-09-24T02:29:05;7.50;99.90
45619;DHT22;31343;47.520;19.144;2022-09-24T02:31:31;7.40;99.90
45619;DHT22;31343;47.520;19.144;2022-09-24T02:33:58;7.30;99.90
45619;DHT22;31343;47.520;19.144;2022-09-24T02:36:43;7.20;99.90
45619;DHT22;31343;47.520;19.144;2022-09-24T02:39:09;7.30;99.90
45619;DHT22;31343;47.520;19.144;2022-09-24T02:41:34;7.30;99.90
45619;DHT22;31343;47.520;19.144;2022-09-24T02:44:01;7.30;99.90
45619;DHT22;31343;47.520;19.144;2022-09-24T02:46:27;7.30;99.90
45619;DHT22;31343;47.520;19.144;2022-09-24T02:48:52;7.30;99.90
45619;DHT22;31343;47.520;19.144;2022-09-24T02:51:18;7.20;99.90
45619;DHT22;31343;47.520;19.144;2022-09-24T02:53:44;7.20;99.90
45619;DHT22;31343;47.520;19.144;2022-09-24T02:56:09;7.20;99.90
45619;DHT22;31343;47.520;19.144;2022-09-24T02:58:35;7.20;99.90
45619;DHT22;31343;47.520;19.144;2022-09-24T03:01:02;7.20;99.90
45619;DHT22;31343;47.520;19.144;2022-09-24T03:03:28;7.20;99.90
45619;DHT22;31343;47.520;19.144;2022-09-24T03:05:54;7.10;99.90
45619;DHT22;31343;47.520;19.144;2022-09-24T03:08:20;7.10;99.90
45619;DHT22;31343;47.520;19.144;2022-09-24T03:10:46;7.20;99.90
45619;DHT22;31343;47.520;19.144;2022-09-24T03:13:11;7.10;99.90
45619;DHT22;31343;47.520;19.144;2022-09-24T03:15:37;7.10;99.90
45619;DHT22;31343;47.520;19.144;2022-09-24T03:18:02;7.10;99.90
45619;DHT22;31343;47.520;19.144;2022-09-24T03:20:28;7.00;99.90
45619;DHT22;31343;47.520;19.144;2022-09-24T03:22:54;7.10;99.90
45619;DHT22;31343;47.520;19.144;2022-09-24T03:25:20;7.00;99.90
45619;DHT22;31343;47.520;19.144;2022-09-24T03:27:45;7.00;99.90
45619;DHT22;31343;47.520;19.144;2022-09-24T03:30:11;6.90;99.90
45619;DHT22;31343;47.520;19.144;2022-09-24T03:32:55;6.90;99.90
45619;DHT22;31343;47.520;19.144;2022-09-24T03:35:21;6.90;99.90
45619;DHT22;31343;47.520;19.144;2022-09-24T03:37:46;6.90;99.90
45619;DHT22;31343;47.520;19.144;2022-09-24T03:40:12;6.90;99.90
45619;DHT22;31343;47.520;19.144;2022-09-24T03:42:38;6.90;99.90
45619;DHT22;31343;47.520;19.144;2022-09-24T03:45:04;6.70;99.90
45619;DHT22;31343;47.520;19.144;2022-09-24T03:47:30;6.70;99.90
45619;DHT22;31343;47.520;19.144;2022-09-24T03:49:55;6.80;99.90
45619;DHT22;31343;47.520;19.144;2022-09-24T03:52:21;6.80;99.90
45619;DHT22;31343;47.520;19.144;2022-09-24T03:54:47;6.80;99.90
45619;DHT22;31343;47.520;19.144;2022-09-24T03:57:12;6.70;99.90
45619;DHT22;31343;47.520;19.144;2022-09-24T03:59:39;6.70;99.90
45619;DHT22;31343;47.520;19.144;2022-09-24T04:02:05;6.70;99.90
45619;DHT22;31343;47.520;19.144;2022-09-24T04:04:30;6.70;99.90
45619;DHT22;31343;47.520;19.144;2022-09-24T04:06:56;6.70;99.90
45619;DHT22;31343;47.520;19.144;2022-09-24T04:09:22;6.70;99.90
45619;DHT22;31343;47.520;19.144;2022-09-24T04:11:47;6.70;99.90
45619;DHT22;31343;47.520;19.144;2022-09-24T04:14:13;6.70;99.90
45619;DHT22;31343;47.520;19.144;2022-09-24T04:16:39;6.70;99.90
45619;DHT22;31343;47.520;19.144;2022-09-24T04:19:04;6.70;99.90
45619;DHT22;31343;47.520;19.144;2022-09-24T04:21:32;6.60;99.90
45619;DHT22;31343;47.520;19.144;2022-09-24T04:23:57;6.60;99.90
45619;DHT22;31343;47.520;19.144;2022-09-24T04:26:23;6.70;99.90
45619;DHT22;31343;47.520;19.144;2022-09-24T04:28:48;6.70;99.90
45619;DHT22;31343;47.520;19.144;2022-09-24T04:31:14;6.60;99.90
45619;DHT22;31343;47.520;19.144;2022-09-24T04:33:40;6.60;99.90
45619;DHT22;31343;47.520;19.144;2022-09-24T04:36:06;6.60;99.90
45619;DHT22;31343;47.520;19.144;2022-09-24T04:38:31;6.60;99.90
45619;DHT22;31343;47.520;19.144;2022-09-24T04:41:06;6.60;99.90
45619;DHT22;31343;47.520;19.144;2022-09-24T04:43:32;6.50;99.90
45619;DHT22;31343;47.520;19.144;2022-09-24T04:45:57;6.30;99.90
45619;DHT22;31343;47.520;19.144;2022-09-24T04:48:24;6.50;99.90
45619;DHT22;31343;47.520;19.144;2022-09-24T04:50:49;6.50;99.90
45619;DHT22;31343;47.520;19.144;2022-09-24T04:53:15;6.50;99.90
45619;DHT22;31343;47.520;19.144;2022-09-24T04:55:41;6.60;99.90
45619;DHT22;31343;47.520;19.144;2022-09-24T04:58:07;6.60;99.90
45619;DHT22;31343;47.520;19.144;2022-09-24T05:00:33;6.60;99.90
45619;DHT22;31343;47.520;19.144;2022-09-24T05:03:00;6.70;99.90
45619;DHT22;31343;47.520;19.144;2022-09-24T05:05:27;6.70;99.90
45619;DHT22;31343;47.520;19.144;2022-09-24T05:07:53;6.80;99.90
45619;DHT22;31343;47.520;19.144;2022-09-24T05:10:21;6.80;99.90
45619;DHT22;31343;47.520;19.144;2022-09-24T05:12:47;6.90;99.90
45619;DHT22;31343;47.520;19.144;2022-09-24T05:15:13;7.00;99.90
45619;DHT22;31343;47.520;19.144;2022-09-24T05:17:38;7.20;99.90
45619;DHT22;31343;47.520;19.144;2022-09-24T05:20:05;7.30;99.90
45619;DHT22;31343;47.520;19.144;2022-09-24T05:22:30;7.60;99.90
45619;DHT22;31343;47.520;19.144;2022-09-24T05:24:56;7.70;99.90
45619;DHT22;31343;47.520;19.144;2022-09-24T05:27:21;7.80;99.90
45619;DHT22;31343;47.520;19.144;2022-09-24T05:29:48;8.20;99.90
45619;DHT22;31343;47.520;19.144;2022-09-24T05:32:15;8.90;99.90
45619;DHT22;31343;47.520;19.144;2022-09-24T05:34:42;9.50;99.90
45619;DHT22;31343;47.520;19.144;2022-09-24T05:37:07;10.10;99.90
45619;DHT22;31343;47.520;19.144;2022-09-24T05:39:33;10.40;99.90
45619;DHT22;31343;47.520;19.144;2022-09-24T05:41:59;11.20;99.90
45619;DHT22;31343;47.520;19.144;2022-09-24T05:44:27;11.30;99.90
45619;DHT22;31343;47.520;19.144;2022-09-24T05:46:54;11.90;99.90
45619;DHT22;31343;47.520;19.144;2022-09-24T05:49:19;11.90;99.90
45619;DHT22;31343;47.520;19.144;2022-09-24T05:51:46;12.00;99.90
45619;DHT22;31343;47.520;19.144;2022-09-24T05:54:12;11.90;99.90
45619;DHT22;31343;47.520;19.144;2022-09-24T05:56:37;11.40;99.90
45619;DHT22;31343;47.520;19.144;2022-09-24T05:59:03;11.00;99.90
45619;DHT22;31343;47.520;19.144;2022-09-24T06:01:28;10.50;99.90
45619;DHT22;31343;47.520;19.144;2022-09-24T06:03:54;10.40;99.90
45619;DHT22;31343;47.520;19.144;2022-09-24T06:06:21;10.20;99.90
45619;DHT22;31343;47.520;19.144;2022-09-24T06:08:46;10.30;99.90
45619;DHT22;31343;47.520;19.144;2022-09-24T06:11:12;11.20;99.90
45619;DHT22;31343;47.520;19.144;2022-09-24T06:13:38;11.60;99.90
45619;DHT22;31343;47.520;19.144;2022-09-24T06:16:05;12.30;99.90
45619;DHT22;31343;47.520;19.144;2022-09-24T06:18:32;13.00;99.90
45619;DHT22;31343;47.520;19.144;2022-09-24T06:21:00;13.90;99.90
45619;DHT22;31343;47.520;19.144;2022-09-24T06:23:25;14.20;99.90
45619;DHT22;31343;47.520;19.144;2022-09-24T06:25:51;14.40;99.90
45619;DHT22;31343;47.520;19.144;2022-09-24T06:28:16;15.30;99.30
45619;DHT22;31343;47.520;19.144;2022-09-24T06:30:42;16.10;97.80
45619;DHT22;31343;47.520;19.144;2022-09-24T06:33:09;16.20;97.30
45619;DHT22;31343;47.520;19.144;2022-09-24T06:35:35;16.60;97.10
45619;DHT22;31343;47.520;19.144;2022-09-24T06:38:04;16.50;95.80
45619;DHT22;31343;47.520;19.144;2022-09-24T06:40:30;16.30;96.50
45619;DHT22;31343;47.520;19.144;2022-09-24T06:42:56;15.90;96.70
45619;DHT22;31343;47.520;19.144;2022-09-24T06:45:21;15.40;97.50
45619;DHT22;31343;47.520;19.144;2022-09-24T06:47:54;15.50;97.90
45619;DHT22;31343;47.520;19.144;2022-09-24T06:50:20;15.20;98.20
45619;DHT22;31343;47.520;19.144;2022-09-24T06:52:45;15.30;98.00
45619;DHT22;31343;47.520;19.144;2022-09-24T06:55:11;15.80;97.60
45619;DHT22;31343;47.520;19.144;2022-09-24T06:57:36;16.50;97.10
45619;DHT22;31343;47.520;19.144;2022-09-24T07:00:02;16.90;96.30
45619;DHT22;31343;47.520;19.144;2022-09-24T07:02:28;17.50;95.10
45619;DHT22;31343;47.520;19.144;2022-09-24T07:04:55;17.40;95.00
45619;DHT22;31343;47.520;19.144;2022-09-24T07:07:22;16.70;95.50
45619;DHT22;31343;47.520;19.144;2022-09-24T07:10:00;16.50;96.10
45619;DHT22;31343;47.520;19.144;2022-09-24T07:12:30;15.60;96.80
45619;DHT22;31343;47.520;19.144;2022-09-24T07:14:56;15.00;97.90
45619;DHT22;31343;47.520;19.144;2022-09-24T07:17:22;15.00;98.50
45619;DHT22;31343;47.520;19.144;2022-09-24T07:19:48;15.60;98.20
45619;DHT22;31343;47.520;19.144;2022-09-24T07:22:13;16.10;97.60
45619;DHT22;31343;47.520;19.144;2022-09-24T07:24:39;16.50;96.30
45619;DHT22;31343;47.520;19.144;2022-09-24T07:27:05;16.60;96.60
45619;DHT22;31343;47.520;19.144;2022-09-24T07:29:30;16.50;96.30
45619;DHT22;31343;47.520;19.144;2022-09-24T07:31:56;16.20;96.50
45619;DHT22;31343;47.520;19.144;2022-09-24T07:34:22;16.00;97.10
45619;DHT22;31343;47.520;19.144;2022-09-24T07:36:47;15.80;97.40
45619;DHT22;31343;47.520;19.144;2022-09-24T07:39:13;15.70;97.60
45619;DHT22;31343;47.520;19.144;2022-09-24T07:41:38;16.40;97.20
45619;DHT22;31343;47.520;19.144;2022-09-24T07:44:05;16.60;97.10
45619;DHT22;31343;47.520;19.144;2022-09-24T07:46:32;17.10;95.90
45619;DHT22;31343;47.520;19.144;2022-09-24T07:48:57;17.40;96.00
45619;DHT22;31343;47.520;19.144;2022-09-24T07:51:23;17.70;95.70
45619;DHT22;31343;47.520;19.144;2022-09-24T07:53:50;17.90;94.70
45619;DHT22;31343;47.520;19.144;2022-09-24T07:56:16;18.00;95.20
45619;DHT22;31343;47.520;19.144;2022-09-24T07:58:42;18.00;94.70
45619;DHT22;31343;47.520;19.144;2022-09-24T08:01:08;17.90;94.20
45619;DHT22;31343;47.520;19.144;2022-09-24T08:03:33;17.60;94.90
45619;DHT22;31343;47.520;19.144;2022-09-24T08:05:59;17.20;95.60
45619;DHT22;31343;47.520;19.144;2022-09-24T08:08:26;17.20;96.10
45619;DHT22;31343;47.520;19.144;2022-09-24T08:10:51;17.20;95.80
45619;DHT22;31343;47.520;19.144;2022-09-24T08:13:17;17.10;95.70
45619;DHT22;31343;47.520;19.144;2022-09-24T08:15:42;17.30;95.90
45619;DHT22;31343;47.520;19.144;2022-09-24T08:18:08;17.70;95.00
45619;DHT22;31343;47.520;19.144;2022-09-24T08:20:35;17.40;95.70
45619;DHT22;31343;47.520;19.144;2022-09-24T08:23:04;17.80;95.40
45619;DHT22;31343;47.520;19.144;2022-09-24T08:25:30;18.00;95.40
45619;DHT22;31343;47.520;19.144;2022-09-24T08:28:03;17.50;96.00
45619;DHT22;31343;47.520;19.144;2022-09-24T08:30:28;17.10;96.00
45619;DHT22;31343;47.520;19.144;2022-09-24T08:32:55;16.80;96.70
45619;DHT22;31343;47.520;19.144;2022-09-24T08:35:21;16.90;97.20
45619;DHT22;31343;47.520;19.144;2022-09-24T08:37:46;16.90;96.70
45619;DHT22;31343;47.520;19.144;2022-09-24T08:40:14;16.90;96.00
45619;DHT22;31343;47.520;19.144;2022-09-24T08:45:13;16.60;94.30
45619;DHT22;31343;47.520;19.144;2022-09-24T08:48:19;16.40;94.60
45619;DHT22;31343;47.520;19.144;2022-09-24T08:50:49;16.20;96.00
45619;DHT22;31343;47.520;19.144;2022-09-24T08:55:55;16.30;95.60
45619;DHT22;31343;47.520;19.144;2022-09-24T08:58:30;16.40;94.80
45619;DHT22;31343;47.520;19.144;2022-09-24T09:03:31;16.60;95.00
45619;DHT22;31343;47.520;19.144;2022-09-24T09:08:31;16.60;94.90
45619;DHT22;31343;47.520;19.144;2022-09-24T09:10:59;16.90;94.90
45619;DHT22;31343;47.520;19.144;2022-09-24T09:13:29;16.50;94.80
45619;DHT22;31343;47.520;19.144;2022-09-24T09:16:19;16.30;95.50
45619;DHT22;31343;47.520;19.144;2022-09-24T09:18:42;16.60;95.60
45619;DHT22;31343;47.520;19.144;2022-09-24T09:24:18;16.40;94.30
45619;DHT22;31343;47.520;19.144;2022-09-24T09:26:48;16.60;95.00
45619;DHT22;31343;47.520;19.144;2022-09-24T09:29:14;16.80;94.90
45619;DHT22;31343;47.520;19.144;2022-09-24T09:34:22;16.80;94.60
45619;DHT22;31343;47.520;19.144;2022-09-24T09:37:01;16.80;94.60
45619;DHT22;31343;47.520;19.144;2022-09-24T09:44:24;17.10;93.30
45619;DHT22;31343;47.520;19.144;2022-09-24T09:46:52;17.20;93.70
45619;DHT22;31343;47.520;19.144;2022-09-24T09:49:19;17.00;93.00
45619;DHT22;31343;47.520;19.144;2022-09-24T09:51:46;17.30;92.60
45619;DHT22;31343;47.520;19.144;2022-09-24T09:54:13;17.10;92.90
45619;DHT22;31343;47.520;19.144;2022-09-24T09:56:43;17.20;92.70
45619;DHT22;31343;47.520;19.144;2022-09-24T10:01:35;17.40;92.10
45619;DHT22;31343;47.520;19.144;2022-09-24T10:04:02;17.40;92.50
45619;DHT22;31343;47.520;19.144;2022-09-24T10:06:33;17.50;92.30
45619;DHT22;31343;47.520;19.144;2022-09-24T10:09:11;17.60;91.80
45619;DHT22;31343;47.520;19.144;2022-09-24T10:11:37;17.60;92.80
45619;DHT22;31343;47.520;19.144;2022-09-24T10:14:08;18.00;92.30
45619;DHT22;31343;47.520;19.144;2022-09-24T10:16:38;18.10;92.00
45619;DHT22;31343;47.520;19.144;2022-09-24T10:19:09;17.80;92.30
45619;DHT22;31343;47.520;19.144;2022-09-24T10:21:37;17.80;92.80
45619;DHT22;31343;47.520;19.144;2022-09-24T10:24:04;17.80;92.70
45619;DHT22;31343;47.520;19.144;2022-09-24T10:26:38;17.80;92.50
45619;DHT22;31343;47.520;19.144;2022-09-24T10:29:04;17.90;92.70
45619;DHT22;31343;47.520;19.144;2022-09-24T10:31:48;18.10;91.50
45619;DHT22;31343;47.520;19.144;2022-09-24T10:34:21;18.20;91.50
45619;DHT22;31343;47.520;19.144;2022-09-24T10:36:52;18.20;91.60
45619;DHT22;31343;47.520;19.144;2022-09-24T10:39:19;18.30;91.70
45619;DHT22;31343;47.520;19.144;2022-09-24T10:41:46;18.50;91.50
45619;DHT22;31343;47.520;19.144;2022-09-24T10:44:12;18.70;91.30
45619;DHT22;31343;47.520;19.144;2022-09-24T10:49:06;18.50;90.10
45619;DHT22;31343;47.520;19.144;2022-09-24T10:54:32;18.30;90.30
45619;DHT22;31343;47.520;19.144;2022-09-24T10:57:03;18.50;90.10
45619;DHT22;31343;47.520;19.144;2022-09-24T10:59:37;18.70;89.60
45619;DHT22;31343;47.520;19.144;2022-09-24T11:13:18;19.70;85.80
45619;DHT22;31343;47.520;19.144;2022-09-24T11:20:43;20.60;84.50
45619;DHT22;31343;47.520;19.144;2022-09-24T11:28:18;20.80;82.70
45619;DHT22;31343;47.520;19.144;2022-09-24T11:33:23;21.40;82.30
45619;DHT22;31343;47.520;19.144;2022-09-24T11:35:56;21.50;80.90
45619;DHT22;31343;47.520;19.144;2022-09-24T11:41:07;21.30;80.80
45619;DHT22;31343;47.520;19.144;2022-09-24T11:49:01;22.20;80.60
45619;DHT22;31343;47.520;19.144;2022-09-24T11:54:19;22.60;78.20
45619;DHT22;31343;47.520;19.144;2022-09-24T11:56:48;22.40;78.60
45619;DHT22;31343;47.520;19.144;2022-09-24T12:01:57;21.90;79.50
45619;DHT22;31343;47.520;19.144;2022-09-24T12:04:45;21.90;78.90
45619;DHT22;31343;47.520;19.144;2022-09-24T12:07:12;22.00;79.20
45619;DHT22;31343;47.520;19.144;2022-09-24T12:09:47;21.60;78.90
45619;DHT22;31343;47.520;19.144;2022-09-24T12:12:23;21.60;78.80
45619;DHT22;31343;47.520;19.144;2022-09-24T12:17:20;22.30;78.20
45619;DHT22;31343;47.520;19.144;2022-09-24T12:19:49;22.90;77.60
45619;DHT22;31343;47.520;19.144;2022-09-24T12:22:17;23.30;77.10
45619;DHT22;31343;47.520;19.144;2022-09-24T12:24:48;23.00;76.30
45619;DHT22;31343;47.520;19.144;2022-09-24T12:27:18;22.00;77.70
45619;DHT22;31343;47.520;19.144;2022-09-24T12:29:54;21.10;79.90
45619;DHT22;31343;47.520;19.144;2022-09-24T12:32:49;20.40;81.50
45619;DHT22;31343;47.520;19.144;2022-09-24T12:35:24;20.40;82.30
45619;DHT22;31343;47.520;19.144;2022-09-24T12:37:52;20.20;82.00
45619;DHT22;31343;47.520;19.144;2022-09-24T12:40:27;20.10;82.80
45619;DHT22;31343;47.520;19.144;2022-09-24T12:42:55;20.10;82.30
45619;DHT22;31343;47.520;19.144;2022-09-24T12:45:22;19.90;83.30
45619;DHT22;31343;47.520;19.144;2022-09-24T12:47:50;19.50;83.80
45619;DHT22;31343;47.520;19.144;2022-09-24T12:50:20;19.10;85.10
45619;DHT22;31343;47.520;19.144;2022-09-24T12:52:47;19.10;85.30
45619;DHT22;31343;47.520;19.144;2022-09-24T12:57:48;19.10;86.10
45619;DHT22;31343;47.520;19.144;2022-09-24T13:02:59;19.00;86.10
45619;DHT22;31343;47.520;19.144;2022-09-24T13:05:32;18.80;86.50
45619;DHT22;31343;47.520;19.144;2022-09-24T13:10:32;18.70;87.50
45619;DHT22;31343;47.520;19.144;2022-09-24T13:12:59;18.80;88.00
45619;DHT22;31343;47.520;19.144;2022-09-24T13:15:32;18.70;87.00
45619;DHT22;31343;47.520;19.144;2022-09-24T13:17:59;18.70;87.90
45619;DHT22;31343;47.520;19.144;2022-09-24T13:20:26;18.60;86.90
45619;DHT22;31343;47.520;19.144;2022-09-24T13:22:59;18.50;86.70
45619;DHT22;31343;47.520;19.144;2022-09-24T13:25:35;18.50;88.40
45619;DHT22;31343;47.520;19.144;2022-09-24T13:28:03;18.70;87.30
45619;DHT22;31343;47.520;19.144;2022-09-24T13:30:43;18.90;88.00
45619;DHT22;31343;47.520;19.144;2022-09-24T13:33:14;18.90;86.90
45619;DHT22;31343;47.520;19.144;2022-09-24T13:36:02;18.90;86.90
45619;DHT22;31343;47.520;19.144;2022-09-24T13:38:34;18.90;87.50
45619;DHT22;31343;47.520;19.144;2022-09-24T13:41:11;19.00;88.30
45619;DHT22;31343;47.520;19.144;2022-09-24T13:44:01;19.10;88.10
45619;DHT22;31343;47.520;19.144;2022-09-24T13:46:25;19.10;86.40
45619;DHT22;31343;47.520;19.144;2022-09-24T13:48:53;19.20;85.80
45619;DHT22;31343;47.520;19.144;2022-09-24T13:51:27;19.10;86.00
45619;DHT22;31343;47.520;19.144;2022-09-24T13:56:21;19.00;87.10
45619;DHT22;31343;47.520;19.144;2022-09-24T13:58:47;19.00;86.60
45619;DHT22;31343;47.520;19.144;2022-09-24T14:03:41;18.80;86.60
45619;DHT22;31343;47.520;19.144;2022-09-24T14:06:08;18.60;87.00
45619;DHT22;31343;47.520;19.144;2022-09-24T14:08:35;18.50;87.50
45619;DHT22;31343;47.520;19.144;2022-09-24T14:13:45;18.40;88.50
45619;DHT22;31343;47.520;19.144;2022-09-24T14:16:17;18.40;88.50
45619;DHT22;31343;47.520;19.144;2022-09-24T14:18:44;18.40;88.80
45619;DHT22;31343;47.520;19.144;2022-09-24T14:23:37;18.50;88.80
45619;DHT22;31343;47.520;19.144;2022-09-24T14:26:04;18.50;89.90
45619;DHT22;31343;47.520;19.144;2022-09-24T14:28:30;18.40;88.60
45619;DHT22;31343;47.520;19.144;2022-09-24T14:30:57;18.40;89.00
45619;DHT22;31343;47.520;19.144;2022-09-24T14:33:28;18.30;89.20
45619;DHT22;31343;47.520;19.144;2022-09-24T14:35:55;18.30;88.80
45619;DHT22;31343;47.520;19.144;2022-09-24T14:40:48;18.20;89.70
45619;DHT22;31343;47.520;19.144;2022-09-24T14:45:47;18.30;89.50
45619;DHT22;31343;47.520;19.144;2022-09-24T14:48:23;18.20;89.70
45619;DHT22;31343;47.520;19.144;2022-09-24T14:50:51;18.30;90.00
45619;DHT22;31343;47.520;19.144;2022-09-24T14:53:21;18.30;90.00
45619;DHT22;31343;47.520;19.144;2022-09-24T14:55:48;18.30;89.90
45619;DHT22;31343;47.520;19.144;2022-09-24T15:00:58;18.30;89.80
45619;DHT22;31343;47.520;19.144;2022-09-24T15:03:31;18.30;90.30
45619;DHT22;31343;47.520;19.144;2022-09-24T15:06:05;18.10;90.20
45619;DHT22;31343;47.520;19.144;2022-09-24T15:08:33;18.10;90.20
45619;DHT22;31343;47.520;19.144;2022-09-24T15:10:59;18.10;90.50
45619;DHT22;31343;47.520;19.144;2022-09-24T15:13:28;18.10;90.60
45619;DHT22;31343;47.520;19.144;2022-09-24T15:18:38;18.10;90.90
45619;DHT22;31343;47.520;19.144;2022-09-24T15:21:05;18.10;90.80
45619;DHT22;31343;47.520;19.144;2022-09-24T15:23:33;18.10;91.00
45619;DHT22;31343;47.520;19.144;2022-09-24T15:25:58;18.10;91.00
45619;DHT22;31343;47.520;19.144;2022-09-24T15:28:24;18.10;91.00
45619;DHT22;31343;47.520;19.144;2022-09-24T15:30:53;18.10;91.20
45619;DHT22;31343;47.520;19.144;2022-09-24T15:33:19;18.00;91.30
45619;DHT22;31343;47.520;19.144;2022-09-24T15:35:44;18.00;91.30
45619;DHT22;31343;47.520;19.144;2022-09-24T15:38:14;18.00;91.30
45619;DHT22;31343;47.520;19.144;2022-09-24T15:40:40;17.90;91.40
45619;DHT22;31343;47.520;19.144;2022-09-24T15:43:24;17.90;91.70
45619;DHT22;31343;47.520;19.144;2022-09-24T15:45:50;17.80;91.50
45619;DHT22;31343;47.520;19.144;2022-09-24T15:48:16;17.80;91.80
45619;DHT22;31343;47.520;19.144;2022-09-24T15:50:42;17.80;91.90
45619;DHT22;31343;47.520;19.144;2022-09-24T15:53:19;17.70;91.90
45619;DHT22;31343;47.520;19.144;2022-09-24T15:55:46;17.70;91.80
45619;DHT22;31343;47.520;19.144;2022-09-24T15:58:13;17.70;92.00
45619;DHT22;31343;47.520;19.144;2022-09-24T16:00:39;17.70;92.10
45619;DHT22;31343;47.520;19.144;2022-09-24T16:03:08;17.60;92.30
45619;DHT22;31343;47.520;19.144;2022-09-24T16:05:35;17.60;92.50
45619;DHT22;31343;47.520;19.144;2022-09-24T16:08:01;17.50;92.60
45619;DHT22;31343;47.520;19.144;2022-09-24T16:10:26;17.50;92.60
45619;DHT22;31343;47.520;19.144;2022-09-24T16:12:52;17.50;92.60
45619;DHT22;31343;47.520;19.144;2022-09-24T16:15:18;17.50;92.80
45619;DHT22;31343;47.520;19.144;2022-09-24T16:17:43;17.50;92.90
45619;DHT22;31343;47.520;19.144;2022-09-24T16:20:11;17.50;92.90
45619;DHT22;31343;47.520;19.144;2022-09-24T16:22:36;17.40;93.10
45619;DHT22;31343;47.520;19.144;2022-09-24T16:25:03;17.40;93.10
45619;DHT22;31343;47.520;19.144;2022-09-24T16:27:29;17.30;93.30
45619;DHT22;31343;47.520;19.144;2022-09-24T16:29:55;17.30;93.40
45619;DHT22;31343;47.520;19.144;2022-09-24T16:32:21;17.20;93.80
45619;DHT22;31343;47.520;19.144;2022-09-24T16:34:46;17.20;93.80
45619;DHT22;31343;47.520;19.144;2022-09-24T16:37:12;17.20;93.90
45619;DHT22;31343;47.520;19.144;2022-09-24T16:39:38;17.10;93.90
45619;DHT22;31343;47.520;19.144;2022-09-24T16:42:04;17.10;94.00
45619;DHT22;31343;47.520;19.144;2022-09-24T16:44:30;17.00;94.30
45619;DHT22;31343;47.520;19.144;2022-09-24T16:46:55;17.00;94.30
45619;DHT22;31343;47.520;19.144;2022-09-24T16:49:22;16.90;94.50
45619;DHT22;31343;47.520;19.144;2022-09-24T16:51:47;16.90;94.50
45619;DHT22;31343;47.520;19.144;2022-09-24T16:54:13;16.90;94.70
45619;DHT22;31343;47.520;19.144;2022-09-24T16:56:39;16.80;94.90
45619;DHT22;31343;47.520;19.144;2022-09-24T16:59:04;16.80;94.90
45619;DHT22;31343;47.520;19.144;2022-09-24T17:01:30;16.70;95.40
45619;DHT22;31343;47.520;19.144;2022-09-24T17:03:56;16.60;95.30
45619;DHT22;31343;47.520;19.144;2022-09-24T17:06:23;16.60;95.60
45619;DHT22;31343;47.520;19.144;2022-09-24T17:08:49;16.60;95.60
45619;DHT22;31343;47.520;19.144;2022-09-24T17:11:33;16.50;95.60